Time;durP1;ratioP1;P1;durP2;ratioP2;P2;SDS_P1;SDS_P2;PMS_P1;PMS_P2;Temp;Humidity;BMP_temperature;BMP_pressure;BME280_temperature;BME280_humidity;BME280_pressure;Samples;Min_cycle;Max_cycle;Signal;HPM_P1;HPM_P2
2021/11/07 00:02:31;;;;;;;1999.90;999.90;;;;;;;;;;4993461;28;20181;-78
2021/11/07 00:05:05;;;;;;;1999.90;999.90;;;9.70;99.90;;;;;;4993468;28;20212;-79
2021/11/07 00:10:26;;;;;;;1999.90;999.90;;;;;;;;;;4993208;28;20238;-78
2021/11/07 00:13:00;;;;;;;1999.90;999.90;;;;;;;;;;4993729;28;20179;-79
2021/11/07 00:15:26;;;;;;;1999.90;999.90;;;;;;;;;;4993075;28;20164;-78
2021/11/07 00:17:55;;;;;;;1999.90;999.90;;;;;;;;;;4994091;28;20176;-79
2021/11/07 00:20:29;;;;;;;1999.90;999.90;;;;;;;;;;4993083;28;20232;-78
2021/11/07 00:23:04;;;;;;;1999.90;999.90;;;;;;;;;;4993021;28;20181;-79
2021/11/07 00:25:42;;;;;;;1999.90;999.90;;;;;;;;;;4992393;28;20200;-78
2021/11/07 00:28:13;;;;;;;1999.90;999.90;;;;;;;;;;4992496;28;20185;-79
2021/11/07 00:33:29;;;;;;;1999.90;999.90;;;9.40;99.90;;;;;;4992402;28;20177;-81
2021/11/07 00:38:40;;;;;;;1999.90;999.90;;;;;;;;;;4992508;28;20282;-79
2021/11/07 00:43:56;;;;;;;1999.90;999.90;;;9.20;99.90;;;;;;4993164;28;20720;-79
2021/11/07 00:46:38;;;;;;;1999.90;999.90;;;9.20;99.90;;;;;;4993732;28;20216;-79
2021/11/07 00:49:08;;;;;;;1999.90;999.90;;;9.10;99.90;;;;;;4992877;28;20688;-79
2021/11/07 00:54:23;;;;;;;1999.90;999.90;;;;;;;;;;4992974;28;20182;-79
2021/11/07 00:56:53;;;;;;;1999.90;999.90;;;;;;;;;;4992873;28;20259;-80
2021/11/07 01:01:51;;;;;;;1999.90;999.90;;;8.90;99.90;;;;;;4993001;28;20208;-78
2021/11/07 01:04:17;;;;;;;1999.90;999.90;;;;;;;;;;4992829;28;20165;-80
2021/11/07 01:06:44;;;;;;;1999.90;999.90;;;;;;;;;;4993029;28;20179;-79
2021/11/07 01:09:10;;;;;;;1999.90;999.90;;;;;;;;;;4992278;28;20185;-81
2021/11/07 01:11:36;;;;;;;1999.90;999.90;;;;;;;;;;4992612;28;20223;-79
2021/11/07 01:14:02;;;;;;;1999.90;999.90;;;8.80;99.90;;;;;;4992409;28;20180;-79
2021/11/07 01:16:28;;;;;;;1999.90;999.90;;;9.00;99.90;;;;;;4992455;28;20196;-80
2021/11/07 01:18:54;;;;;;;1999.90;999.90;;;8.90;99.90;;;;;;4992744;28;20568;-79
2021/11/07 01:21:19;;;;;;;1999.90;999.90;;;9.00;99.90;;;;;;4992654;28;20688;-79
2021/11/07 01:23:55;;;;;;;1999.90;999.90;;;8.80;99.90;;;;;;4992435;28;20216;-79
2021/11/07 01:26:32;;;;;;;1999.90;999.90;;;8.90;99.90;;;;;;4996555;28;20306;-80
2021/11/07 01:29:04;;;;;;;1999.90;999.90;;;;;;;;;;4997563;28;20222;-79
2021/11/07 01:31:31;;;;;;;1999.90;999.90;;;8.70;99.90;;;;;;4996076;28;20675;-79
2021/11/07 01:33:58;;;;;;;1999.90;999.90;;;8.80;99.90;;;;;;4996604;28;20636;-79
2021/11/07 01:36:34;;;;;;;1999.90;999.90;;;8.90;99.90;;;;;;4995916;28;20192;-80
2021/11/07 01:41:39;;;;;;;1999.90;999.90;;;8.80;99.90;;;;;;4995571;28;20200;-79
2021/11/07 01:44:05;;;;;;;1999.90;999.90;;;8.90;99.90;;;;;;4997722;28;20592;-79
2021/11/07 01:46:32;;;;;;;1999.90;999.90;;;8.90;99.90;;;;;;4998081;28;20249;-80
2021/11/07 01:49:13;;;;;;;1999.90;999.90;;;8.90;99.90;;;;;;4998838;28;20231;-81
2021/11/07 01:51:47;;;;;;;1999.90;999.90;;;8.90;99.90;;;;;;4998800;28;20240;-80
2021/11/07 01:57:05;;;;;;;1999.90;999.90;;;8.80;99.90;;;;;;4976863;28;20606;-80
2021/11/07 01:59:31;;;;;;;1999.90;999.90;;;;;;;;;;4999632;28;20248;-80
2021/11/07 02:01:58;;;;;;;1999.90;999.90;;;8.80;99.90;;;;;;4997074;28;20602;-81
2021/11/07 02:04:24;;;;;;;1999.90;999.90;;;8.90;99.90;;;;;;4996216;28;20215;-80
2021/11/07 02:06:49;;;;;;;1999.90;999.90;;;8.90;99.90;;;;;;4996484;28;20180;-81
2021/11/07 02:09:16;;;;;;;1999.90;999.90;;;;;;;;;;4996505;28;20176;-80
2021/11/07 02:11:43;;;;;;;1999.90;999.90;;;;;;;;;;4996700;28;20202;-80
2021/11/07 02:14:10;;;;;;;1999.90;999.90;;;;;;;;;;4996529;28;20184;-81
2021/11/07 02:16:36;;;;;;;1999.90;999.90;;;;;;;;;;4996342;28;20193;-80
2021/11/07 02:19:02;;;;;;;1999.90;999.90;;;;;;;;;;4996223;28;20565;-81
2021/11/07 02:21:29;;;;;;;1999.90;999.90;;;;;;;;;;4996027;28;20563;-82
2021/11/07 02:23:55;;;;;;;1999.90;999.90;;;;;;;;;;4996693;28;20185;-81
2021/11/07 02:26:21;;;;;;;1999.90;999.90;;;;;;;;;;4996214;28;20212;-82
2021/11/07 02:28:47;;;;;;;1999.90;999.90;;;8.80;99.90;;;;;;4995844;28;20213;-81
2021/11/07 02:31:15;;;;;;;1999.90;999.90;;;9.00;99.90;;;;;;4996042;28;20203;-82
2021/11/07 02:33:41;;;;;;;1999.90;999.90;;;8.90;99.90;;;;;;4996316;28;20178;-80
2021/11/07 02:36:16;;;;;;;1999.90;999.90;;;9.00;99.90;;;;;;4994988;28;20180;-81
2021/11/07 02:38:42;;;;;;;1999.90;999.90;;;9.10;99.90;;;;;;4995106;28;20238;-79
2021/11/07 02:41:08;;;;;;;1999.90;999.90;;;9.10;99.90;;;;;;4995623;28;20203;-81
2021/11/07 02:43:42;;;;;;;1999.90;999.90;;;9.10;99.90;;;;;;4995975;28;20207;-82
2021/11/07 02:46:10;;;;;;;1999.90;999.90;;;9.00;99.90;;;;;;4995739;28;20201;-80
2021/11/07 02:48:35;;;;;;;1999.90;999.90;;;9.10;99.90;;;;;;4995680;28;20188;-81
2021/11/07 02:51:01;;;;;;;1999.90;999.90;;;9.00;99.90;;;;;;4995378;28;20230;-81
2021/11/07 02:53:27;;;;;;;1999.90;999.90;;;9.00;99.90;;;;;;4995405;28;20179;-81
2021/11/07 02:55:52;;;;;;;1999.90;999.90;;;9.10;99.90;;;;;;4995229;28;20283;-80
2021/11/07 02:58:18;;;;;;;1999.90;999.90;;;9.10;99.90;;;;;;4995332;28;20184;-81
2021/11/07 03:00:43;;;;;;;1999.90;999.90;;;9.20;99.90;;;;;;4995433;28;20217;-81
2021/11/07 03:03:09;;;;;;;1999.90;999.90;;;9.10;99.90;;;;;;4996125;28;20262;-81
2021/11/07 03:05:35;;;;;;;1999.90;999.90;;;9.20;99.90;;;;;;4995956;28;20274;-81
2021/11/07 03:08:00;;;;;;;1999.90;999.90;;;9.20;99.90;;;;;;4995652;28;20256;-81
2021/11/07 03:10:30;;;;;;;1999.90;999.90;;;9.20;99.90;;;;;;4995560;28;20192;-81
2021/11/07 03:13:10;;;;;;;1999.90;999.90;;;9.20;99.90;;;;;;4995937;28;20647;-82
2021/11/07 03:15:36;;;;;;;1999.90;999.90;;;9.30;99.90;;;;;;4995769;28;20278;-81
2021/11/07 03:18:02;;;;;;;1999.90;999.90;;;9.30;99.90;;;;;;4995438;28;20196;-82
2021/11/07 03:20:28;;;;;;;1999.90;999.90;;;9.20;99.90;;;;;;4995954;28;20227;-80
2021/11/07 03:22:54;;;;;;;1999.90;999.90;;;9.30;99.90;;;;;;4995243;28;20239;-80
2021/11/07 03:25:20;;;;;;;1999.90;999.90;;;9.30;99.90;;;;;;4995478;28;20282;-81
2021/11/07 03:27:46;;;;;;;1999.90;999.90;;;9.30;99.90;;;;;;4995226;28;20187;-79
2021/11/07 03:31:09;;;;;;;1999.90;999.90;;;9.30;99.90;;;;;;4995048;28;20196;-81
2021/11/07 03:33:26;;;;;;;1999.90;999.90;;;9.40;99.90;;;;;;4987223;28;20192;-81
2021/11/07 03:35:53;;;;;;;1999.90;999.90;;;9.40;99.90;;;;;;4996060;28;20660;-79
2021/11/07 03:38:18;;;;;;;1999.90;999.90;;;9.30;99.90;;;;;;4995131;28;20180;-81
2021/11/07 03:40:44;;;;;;;1999.90;999.90;;;9.40;99.90;;;;;;4995392;28;20202;-80
2021/11/07 03:43:10;;;;;;;1999.90;999.90;;;9.30;99.90;;;;;;4995227;28;20175;-79
2021/11/07 03:45:35;;;;;;;1999.90;999.90;;;9.50;99.90;;;;;;4995053;28;20205;-80
2021/11/07 03:48:02;;;;;;;1999.90;999.90;;;9.50;99.90;;;;;;4994329;28;20207;-81
2021/11/07 03:50:28;;;;;;;1999.90;999.90;;;9.30;99.90;;;;;;4994732;28;20615;-80
2021/11/07 03:52:54;;;;;;;1999.90;999.90;;;9.50;99.90;;;;;;4993747;28;20180;-80
2021/11/07 03:55:20;;;;;;;1999.90;999.90;;;9.50;99.90;;;;;;4994509;28;20179;-80
2021/11/07 03:57:45;;;;;;;1999.90;999.90;;;9.40;99.90;;;;;;4994599;28;20290;-80
2021/11/07 04:00:13;;;;;;;1999.90;999.90;;;9.50;99.90;;;;;;4994826;28;20217;-80
2021/11/07 04:02:39;;;;;;;1999.90;999.90;;;9.40;99.90;;;;;;4994880;28;20274;-80
2021/11/07 04:05:05;;;;;;;1999.90;999.90;;;9.50;99.90;;;;;;4994444;28;20273;-80
2021/11/07 04:07:31;;;;;;;1999.90;999.90;;;9.40;99.90;;;;;;4994193;28;20186;-80
2021/11/07 04:09:57;;;;;;;1999.90;999.90;;;9.40;99.90;;;;;;4993950;28;20192;-80
2021/11/07 04:12:22;;;;;;;1999.90;999.90;;;9.40;99.90;;;;;;4993997;28;20209;-81
2021/11/07 04:14:48;;;;;;;1999.90;999.90;;;9.50;99.90;;;;;;4994626;28;20238;-81
2021/11/07 04:17:13;;;;;;;1999.90;999.90;;;9.50;99.90;;;;;;4994575;28;20228;-81
2021/11/07 04:19:39;;;;;;;1999.90;999.90;;;9.50;99.90;;;;;;4993728;28;20664;-81
2021/11/07 04:22:07;;;;;;;1999.90;999.90;;;9.50;99.90;;;;;;4994255;28;20184;-80
2021/11/07 04:24:33;;;;;;;1999.90;999.90;;;9.40;99.90;;;;;;4993596;28;20172;-81
2021/11/07 04:26:58;;;;;;;1999.90;999.90;;;9.50;99.90;;;;;;4993988;28;20186;-81
2021/11/07 04:29:25;;;;;;;1999.90;999.90;;;9.40;99.90;;;;;;4994037;28;20233;-81
2021/11/07 04:31:50;;;;;;;1999.90;999.90;;;9.40;99.90;;;;;;4994438;28;20180;-80
2021/11/07 04:34:16;;;;;;;1999.90;999.90;;;9.40;99.90;;;;;;4994007;28;20644;-81
2021/11/07 04:36:42;;;;;;;1999.90;999.90;;;9.40;99.90;;;;;;4993897;28;20189;-81
2021/11/07 04:39:07;;;;;;;1999.90;999.90;;;9.50;99.90;;;;;;4993712;28;20183;-81
2021/11/07 04:41:33;;;;;;;1999.90;999.90;;;;;;;;;;4994278;28;20791;-79
2021/11/07 04:43:59;;;;;;;1999.90;999.90;;;9.40;99.90;;;;;;4994883;28;20215;-80
2021/11/07 04:46:25;;;;;;;1999.90;999.90;;;9.50;99.90;;;;;;4994333;28;20217;-79
2021/11/07 04:48:50;;;;;;;1999.90;999.90;;;9.40;99.90;;;;;;4994606;28;20174;-80
2021/11/07 04:51:17;;;;;;;1999.90;999.90;;;;;;;;;;4994268;28;20649;-78
2021/11/07 04:53:45;;;;;;;1999.90;999.90;;;;;;;;;;4994264;28;20231;-81
2021/11/07 04:56:10;;;;;;;1999.90;999.90;;;9.40;99.90;;;;;;4993985;28;20672;-81
2021/11/07 04:58:36;;;;;;;1999.90;999.90;;;9.50;99.90;;;;;;4994791;28;20200;-81
2021/11/07 05:01:02;;;;;;;1999.90;999.90;;;9.50;99.90;;;;;;4996538;28;20281;-80
2021/11/07 05:03:28;;;;;;;1999.90;999.90;;;9.50;99.90;;;;;;4997824;28;20238;-79
2021/11/07 05:05:54;;;;;;;1999.90;999.90;;;9.50;99.90;;;;;;4998283;28;20266;-80
2021/11/07 05:08:20;;;;;;;1999.90;999.90;;;;;;;;;;4998658;28;20176;-81
2021/11/07 05:10:46;;;;;;;1999.90;999.90;;;9.50;99.90;;;;;;4997445;28;20206;-80
2021/11/07 05:13:12;;;;;;;1999.90;999.90;;;;;;;;;;4997537;28;20550;-79
2021/11/07 05:15:38;;;;;;;1999.90;999.90;;;9.50;99.90;;;;;;4997747;28;20188;-79
2021/11/07 05:18:04;;;;;;;1999.90;999.90;;;9.60;99.90;;;;;;4997466;28;20186;-80
2021/11/07 05:20:30;;;;;;;1999.90;999.90;;;;;;;;;;4997872;28;20691;-81
2021/11/07 05:22:56;;;;;;;1999.90;999.90;;;9.60;99.90;;;;;;4998551;28;20184;-79
2021/11/07 05:25:21;;;;;;;1999.90;999.90;;;9.50;99.90;;;;;;4998009;28;20621;-81
2021/11/07 05:27:48;;;;;;;1999.90;999.90;;;;;;;;;;4997969;28;20174;-81
2021/11/07 05:30:14;;;;;;;1999.90;999.90;;;9.60;99.90;;;;;;4998226;28;20207;-81
2021/11/07 05:32:41;;;;;;;1999.90;999.90;;;;;;;;;;4997475;28;20176;-79
2021/11/07 05:35:07;;;;;;;1999.90;999.90;;;9.60;99.90;;;;;;4997427;28;20213;-80
2021/11/07 05:37:33;;;;;;;1999.90;999.90;;;;;;;;;;4997325;28;20579;-80
2021/11/07 05:39:59;;;;;;;1999.90;999.90;;;9.60;99.90;;;;;;4996923;28;20203;-80
2021/11/07 05:42:24;;;;;;;1999.90;999.90;;;9.60;99.90;;;;;;4997622;28;20179;-79
2021/11/07 05:44:50;;;;;;;1999.90;999.90;;;9.60;99.90;;;;;;4997304;28;20206;-81
2021/11/07 05:47:15;;;;;;;1999.90;999.90;;;9.50;99.90;;;;;;4997750;28;20181;-81
2021/11/07 05:49:41;;;;;;;1999.90;999.90;;;9.60;99.90;;;;;;4997048;28;20653;-79
2021/11/07 05:52:06;;;;;;;1999.90;999.90;;;9.60;99.90;;;;;;4997516;28;20184;-79
2021/11/07 05:54:32;;;;;;;1999.90;999.90;;;9.70;99.90;;;;;;4997027;28;20176;-81
2021/11/07 05:57:00;;;;;;;1999.90;999.90;;;9.60;99.90;;;;;;4996943;28;20539;-80
2021/11/07 05:59:26;;;;;;;1999.90;999.90;;;9.60;99.90;;;;;;4996998;28;20187;-82
2021/11/07 06:01:52;;;;;;;1999.90;999.90;;;9.60;99.90;;;;;;4996177;28;20188;-81
2021/11/07 06:04:17;;;;;;;1999.90;999.90;;;9.50;99.90;;;;;;4995140;28;20172;-81
2021/11/07 06:06:43;;;;;;;1999.90;999.90;;;9.50;99.90;;;;;;4995713;28;20266;-78
2021/11/07 06:09:09;;;;;;;1999.90;999.90;;;9.60;99.90;;;;;;4996380;28;20625;-80
2021/11/07 06:11:34;;;;;;;1999.90;999.90;;;9.70;99.90;;;;;;4998109;28;20224;-79
2021/11/07 06:14:01;;;;;;;1999.90;999.90;;;9.50;99.90;;;;;;4997290;28;20172;-80
2021/11/07 06:16:26;;;;;;;1999.90;999.90;;;9.60;99.90;;;;;;4996951;28;20188;-79
2021/11/07 06:18:52;;;;;;;1999.90;999.90;;;9.60;99.90;;;;;;4996977;28;20184;-78
2021/11/07 06:21:18;;;;;;;1999.90;999.90;;;;;;;;;;4996784;28;20581;-80
2021/11/07 06:23:46;;;;;;;1999.90;999.90;;;9.60;99.90;;;;;;4996850;28;20238;-80
2021/11/07 06:26:12;;;;;;;1999.90;999.90;;;;;;;;;;4981478;28;20203;-80
2021/11/07 06:28:39;;;;;;;1999.90;999.90;;;9.50;99.90;;;;;;4986760;28;20179;-79
2021/11/07 06:31:06;;;;;;;1999.90;999.90;;;9.60;99.90;;;;;;4996254;28;20192;-80
2021/11/07 06:33:32;;;;;;;1999.90;999.90;;;9.60;99.90;;;;;;5004556;28;20259;-80
2021/11/07 06:35:58;;;;;;;1999.90;999.90;;;9.50;99.90;;;;;;4991126;28;20263;-79
2021/11/07 06:38:23;;;;;;;1999.90;999.90;;;9.50;99.90;;;;;;4996289;28;20200;-80
2021/11/07 06:40:49;;;;;;;1999.90;999.90;;;9.50;99.90;;;;;;4974151;28;20210;-80
2021/11/07 06:43:16;;;;;;;1999.90;999.90;;;;;;;;;;4995626;28;20562;-80
2021/11/07 06:45:42;;;;;;;1999.90;999.90;;;;;;;;;;4995324;28;20287;-78
2021/11/07 06:48:08;;;;;;;1999.90;999.90;;;9.40;99.90;;;;;;4995190;28;20648;-78
2021/11/07 06:50:35;;;;;;;1999.90;999.90;;;;;;;;;;4968553;28;20293;-80
2021/11/07 06:53:01;;;;;;;1999.90;999.90;;;;;;;;;;4996410;28;20180;-78
2021/11/07 06:55:27;;;;;;;1999.90;999.90;;;9.30;99.90;;;;;;4996302;28;20187;-79
2021/11/07 06:57:52;;;;;;;1999.90;999.90;;;9.40;99.90;;;;;;4997218;28;20554;-79
2021/11/07 07:00:21;;;;;;;1999.90;999.90;;;9.40;99.90;;;;;;4994504;28;20589;-80
2021/11/07 07:02:47;;;;;;;1999.90;999.90;;;9.50;99.90;;;;;;4995970;28;20198;-78
2021/11/07 07:05:13;;;;;;;1999.90;999.90;;;9.40;99.90;;;;;;4970249;28;20199;-81
2021/11/07 07:07:43;;;;;;;1999.90;999.90;;;9.60;99.90;;;;;;4969695;28;20183;-80
2021/11/07 07:10:12;;;;;;;1999.90;999.90;;;9.50;99.90;;;;;;4995250;28;20199;-81
2021/11/07 07:12:58;;;;;;;1999.90;999.90;;;9.40;99.90;;;;;;4979297;28;20168;-81
2021/11/07 07:15:30;;;;;;;1999.90;999.90;;;9.60;99.90;;;;;;4970800;28;20177;-80
2021/11/07 07:20:42;;;;;;;1999.90;999.90;;;9.60;99.90;;;;;;4980985;28;20208;-79
2021/11/07 07:23:25;;;;;;;1999.90;999.90;;;9.50;99.90;;;;;;4984946;28;20175;-80
2021/11/07 07:26:11;;;;;;;1999.90;999.90;;;9.50;99.90;;;;;;4995337;28;20196;-79
2021/11/07 07:36:03;;;;;;;1999.90;999.90;;;9.60;99.90;;;;;;4994291;28;20179;-80
2021/11/07 07:38:29;;;;;;;1999.90;999.90;;;9.60;99.90;;;;;;4994735;28;20217;-82
2021/11/07 07:40:55;;;;;;;1999.90;999.90;;;9.70;99.90;;;;;;4997066;28;20202;-79
2021/11/07 07:43:20;;;;;;;1999.90;999.90;;;9.90;99.90;;;;;;4994949;28;20188;-79
2021/11/07 07:45:46;;;;;;;1999.90;999.90;;;9.70;99.90;;;;;;4975873;28;20206;-79
2021/11/07 07:48:12;;;;;;;1999.90;999.90;;;9.70;99.90;;;;;;4980022;28;20177;-80
2021/11/07 07:50:40;;;;;;;1999.90;999.90;;;9.80;99.90;;;;;;4957620;28;20199;-83
2021/11/07 07:53:06;;;;;;;1999.90;999.90;;;9.80;99.90;;;;;;4960643;28;20566;-78
2021/11/07 07:55:32;;;;;;;1999.90;999.90;;;9.80;99.90;;;;;;4996850;28;20175;-80
2021/11/07 07:57:58;;;;;;;1999.90;999.90;;;9.90;99.90;;;;;;4962230;28;20191;-79
2021/11/07 08:00:24;;;;;;;1999.90;999.90;;;10.00;99.90;;;;;;4995341;28;20229;-80
2021/11/07 08:02:50;;;;;;;1999.90;999.90;;;9.90;99.90;;;;;;4995149;28;20563;-81
2021/11/07 08:05:16;;;;;;;1999.90;999.90;;;10.00;99.90;;;;;;4997487;28;20226;-81
2021/11/07 08:07:42;;;;;;;1999.90;999.90;;;10.00;99.90;;;;;;4997559;28;20167;-82
2021/11/07 08:10:08;;;;;;;1999.90;999.90;;;10.10;99.90;;;;;;4980560;28;20197;-83
2021/11/07 08:12:34;;;;;;;1999.90;999.90;;;10.00;99.90;;;;;;4980523;28;20173;-80
2021/11/07 08:15:00;;;;;;;1999.90;999.90;;;10.10;99.90;;;;;;4980449;28;20777;-82
2021/11/07 08:17:27;;;;;;;1999.90;999.90;;;10.10;99.90;;;;;;4996944;28;20555;-81
2021/11/07 08:19:53;;;;;;;1999.90;999.90;;;10.10;99.90;;;;;;4980617;28;20241;-80
2021/11/07 08:22:19;;;;;;;1999.90;999.90;;;10.20;99.90;;;;;;4996766;28;20168;-81
2021/11/07 08:24:45;;;;;;;1999.90;999.90;;;10.20;99.90;;;;;;4996582;28;20563;-82
2021/11/07 08:27:10;;;;;;;1999.90;999.90;;;10.20;99.90;;;;;;4997583;28;20176;-80
2021/11/07 08:29:36;;;;;;;1999.90;999.90;;;10.20;99.90;;;;;;4980721;28;20196;-80
2021/11/07 08:32:03;;;;;;;1999.90;999.90;;;10.30;99.90;;;;;;4997102;28;20211;-81
2021/11/07 08:34:30;;;;;;;1999.90;999.90;;;10.30;99.90;;;;;;4980929;28;20182;-80
2021/11/07 08:39:26;;;;;;;1999.90;999.90;;;10.40;99.90;;;;;;4998131;28;20228;-81
2021/11/07 08:42:15;;;;;;;1999.90;999.90;;;10.40;99.90;;;;;;4970067;28;20290;-80
2021/11/07 09:08:50;;;;;;;1999.90;999.90;;;10.90;99.90;;;;;;4996939;28;20636;-79
2021/11/07 09:11:16;;;;;;;1999.90;999.90;;;10.80;99.90;;;;;;4999334;28;20219;-78
2021/11/07 09:13:42;;;;;;;1999.90;999.90;;;10.80;99.90;;;;;;4982106;28;20171;-77
2021/11/07 09:16:09;;;;;;;1999.90;999.90;;;10.70;99.90;;;;;;4982276;28;20185;-78
2021/11/07 09:18:35;;;;;;;1999.90;999.90;;;10.70;99.90;;;;;;4983984;28;20341;-78
2021/11/07 09:23:35;;;;;;;1999.90;999.90;;;10.90;99.90;;;;;;5009075;28;20184;-81
2021/11/07 09:28:46;;;;;;;1999.90;999.90;;;11.20;99.90;;;;;;4999142;28;20178;-81
2021/11/07 09:31:19;;;;;;;1999.90;999.90;;;11.30;99.90;;;;;;4967781;28;20206;-78
2021/11/07 09:36:20;;;;;;;1999.90;999.90;;;11.50;99.90;;;;;;4998361;28;20230;-79
2021/11/07 09:38:49;;;;;;;1999.90;999.90;;;11.40;99.90;;;;;;4997127;28;20176;-79
2021/11/07 09:41:24;;;;;;;1999.90;999.90;;;11.40;99.90;;;;;;4980234;28;20243;-80
2021/11/07 09:48:54;;;;;;;1999.90;999.90;;;11.40;99.90;;;;;;4993694;28;20180;-80
2021/11/07 09:51:22;;;;;;;1999.90;999.90;;;11.30;99.90;;;;;;4980985;28;20660;-79
2021/11/07 09:53:49;;;;;;;1999.90;999.90;;;11.10;99.90;;;;;;4995111;28;20181;-80
2021/11/07 09:56:15;;;;;;;1999.90;999.90;;;11.00;99.90;;;;;;4964510;28;20346;-79
2021/11/07 09:58:42;;;;;;;1999.90;999.90;;;10.90;99.90;;;;;;4997522;28;20669;-80
2021/11/07 10:01:08;;;;;;;1999.90;999.90;;;10.90;99.90;;;;;;4996936;28;20650;-80
2021/11/07 10:03:39;;;;;;;1999.90;999.90;;;10.90;99.90;;;;;;4998639;28;20191;-79
2021/11/07 10:06:05;;;;;;;1999.90;999.90;;;10.60;99.90;;;;;;4983253;28;20194;-80
2021/11/07 10:08:41;;;;;;;1999.90;999.90;;;10.80;99.90;;;;;;5018299;28;20167;-78
2021/11/07 10:11:08;;;;;;;1999.90;999.90;;;10.80;99.90;;;;;;4952504;28;20270;-77
2021/11/07 10:13:34;;;;;;;1999.90;999.90;;;10.90;99.90;;;;;;4996442;28;20183;-80
2021/11/07 10:16:13;;;;;;;1999.90;999.90;;;11.00;99.90;;;;;;4962921;28;20180;-78
2021/11/07 10:21:14;;;;;;;1999.90;999.90;;;11.20;99.90;;;;;;4978219;28;20208;-77
2021/11/07 10:23:44;;;;;;;1999.90;999.90;;;11.20;99.90;;;;;;4978195;28;20314;-76
2021/11/07 10:28:52;;;;;;;1999.90;999.90;;;11.60;99.90;;;;;;4979710;28;20219;-80
2021/11/07 10:31:23;;;;;;;1999.90;999.90;;;11.80;99.90;;;;;;4980971;28;20280;-83
2021/11/07 10:36:48;;;;;;;1999.90;999.90;;;11.90;99.90;;;;;;4979102;28;20160;-81
2021/11/07 10:52:31;;;;;;;1999.90;999.90;;;11.60;99.90;;;;;;4979675;28;20239;-77
2021/11/07 10:54:58;;;;;;;1999.90;999.90;;;11.60;99.90;;;;;;4976838;28;20207;-77
2021/11/07 10:57:26;;;;;;;1999.90;999.90;;;11.80;99.90;;;;;;4976382;28;20180;-77
2021/11/07 11:00:24;;;;;;;1999.90;999.90;;;11.70;99.90;;;;;;4960486;28;20262;-77
2021/11/07 11:02:55;;;;;;;1999.90;999.90;;;11.80;99.90;;;;;;4992218;28;20188;-77
2021/11/07 11:05:48;;;;;;;1999.90;999.90;;;11.80;99.90;;;;;;4960998;28;20298;-78
2021/11/07 11:08:17;;;;;;;1999.90;999.90;;;11.90;99.90;;;;;;4966076;28;20187;-78
2021/11/07 11:13:25;;;;;;;1999.90;999.90;;;11.80;99.90;;;;;;4978545;28;20181;-79
2021/11/07 11:16:17;;;;;;;1999.90;999.90;;;11.90;99.90;;;;;;4965407;28;20647;-78
2021/11/07 11:19:17;;;;;;;1999.90;999.90;;;11.90;99.90;;;;;;4970370;28;20192;-77
2021/11/07 11:22:14;;;;;;;1999.90;999.90;;;11.90;99.90;;;;;;4993733;28;20204;-78
2021/11/07 11:32:47;;;;;;;1999.90;999.90;;;11.50;99.90;;;;;;4994066;28;20223;-78
2021/11/07 11:35:19;;;;;;;1999.90;999.90;;;11.40;99.90;;;;;;4993939;28;20187;-77
2021/11/07 11:45:27;;;;;;;1999.90;999.90;;;11.50;99.90;;;;;;4988252;28;20282;-80
2021/11/07 11:49:28;;;;;;;1999.90;999.90;;;11.40;99.90;;;;;;4994132;28;20187;-77
2021/11/07 11:52:11;;;;;;;1999.90;999.90;;;11.50;99.90;;;;;;4987590;28;20306;-77
2021/11/07 11:57:26;;;;;;;1999.90;999.90;;;11.60;99.90;;;;;;4992404;28;20230;-78
2021/11/07 12:02:50;;;;;;;1999.90;999.90;;;11.70;99.90;;;;;;4992733;28;20199;-77
2021/11/07 12:05:23;;;;;;;1999.90;999.90;;;11.70;99.90;;;;;;4979993;28;20215;-77
2021/11/07 12:08:15;;;;;;;1999.90;999.90;;;11.70;99.90;;;;;;4973493;28;20192;-78
2021/11/07 12:13:26;;;;;;;1999.90;999.90;;;11.60;99.90;;;;;;4987722;28;20259;-77
2021/11/07 12:15:55;;;;;;;1999.90;999.90;;;11.60;99.90;;;;;;4993283;28;20303;-78
2021/11/07 12:18:20;;;;;;;1999.90;999.90;;;11.60;99.90;;;;;;4958391;28;20184;-77
2021/11/07 12:20:51;;;;;;;1999.90;999.90;;;11.50;99.90;;;;;;4974848;28;20258;-76
2021/11/07 12:23:34;;;;;;;1999.90;999.90;;;11.30;99.90;;;;;;4990941;28;20210;-77
2021/11/07 12:26:22;;;;;;;1999.90;999.90;;;11.10;99.90;;;;;;4959588;28;20200;-77
2021/11/07 12:28:49;;;;;;;1999.90;999.90;;;11.00;99.90;;;;;;4974873;28;20230;-78
2021/11/07 12:31:14;;;;;;;1999.90;999.90;;;11.00;99.90;;;;;;4991554;28;20205;-78
2021/11/07 12:33:53;;;;;;;1999.90;999.90;;;10.90;99.90;;;;;;4978353;28;20172;-78
2021/11/07 12:41:58;;;;;;;1999.90;999.90;;;11.20;99.90;;;;;;4984704;28;20257;-77
2021/11/07 12:44:26;;;;;;;1999.90;999.90;;;11.30;99.90;;;;;;4990758;28;20282;-77
2021/11/07 12:47:05;;;;;;;1999.90;999.90;;;11.40;99.90;;;;;;4990804;28;20242;-77
2021/11/07 12:49:33;;;;;;;1999.90;999.90;;;11.30;99.90;;;;;;4992463;28;20164;-77
2021/11/07 12:52:05;;;;;;;1999.90;999.90;;;11.40;99.90;;;;;;4990516;28;20211;-77
2021/11/07 12:54:32;;;;;;;1999.90;999.90;;;11.50;99.90;;;;;;5004071;28;20176;-77
2021/11/07 12:56:58;;;;;;;1999.90;999.90;;;11.50;99.90;;;;;;4990333;28;20212;-77
2021/11/07 12:59:49;;;;;;;1999.90;999.90;;;11.50;99.90;;;;;;4990355;28;20172;-77
2021/11/07 13:02:18;;;;;;;1999.90;999.90;;;11.40;99.90;;;;;;4990413;28;20177;-78
2021/11/07 13:04:48;;;;;;;1999.90;999.90;;;11.50;99.90;;;;;;4995739;28;20184;-78
2021/11/07 13:07:21;;;;;;;1999.90;999.90;;;11.40;99.90;;;;;;4989137;28;20180;-77
2021/11/07 13:09:52;;;;;;;1999.90;999.90;;;11.30;99.90;;;;;;4988229;28;20243;-77
2021/11/07 13:12:30;;;;;;;1999.90;999.90;;;11.20;99.90;;;;;;4991049;28;20172;-77
2021/11/07 13:18:07;;;;;;;1999.90;999.90;;;11.00;99.90;;;;;;4989470;28;20172;-77
2021/11/07 13:26:52;;;;;;;1999.90;999.90;;;10.80;99.90;;;;;;4995775;28;20211;-76
2021/11/07 13:34:32;;;;;;;1999.90;999.90;;;10.80;99.90;;;;;;4995187;28;20612;-77
2021/11/07 13:37:00;;;;;;;1999.90;999.90;;;10.80;99.90;;;;;;5010958;28;20207;-78
2021/11/07 13:39:36;;;;;;;1999.90;999.90;;;10.90;99.90;;;;;;4995165;28;20271;-77
2021/11/07 13:42:11;;;;;;;1999.90;999.90;;;10.90;99.90;;;;;;5006723;28;20190;-77
2021/11/07 13:44:58;;;;;;;1999.90;999.90;;;10.90;99.90;;;;;;4998922;28;20179;-77
2021/11/07 13:47:31;;;;;;;1999.90;999.90;;;10.80;99.90;;;;;;4988922;28;20189;-77
2021/11/07 13:49:56;;;;;;;1999.90;999.90;;;10.80;99.90;;;;;;4994517;28;20758;-77
2021/11/07 13:52:22;;;;;;;1999.90;999.90;;;10.80;99.90;;;;;;4994480;28;20196;-78
2021/11/07 13:54:47;;;;;;;1999.90;999.90;;;11.00;99.90;;;;;;4994623;28;20269;-78
2021/11/07 13:57:13;;;;;;;1999.90;999.90;;;10.80;99.90;;;;;;4994108;28;20182;-78
2021/11/07 13:59:43;;;;;;;1999.90;999.90;;;10.80;99.90;;;;;;4994186;28;20263;-77
2021/11/07 14:02:30;;;;;;;1999.90;999.90;;;10.80;99.90;;;;;;5001673;28;20183;-77
2021/11/07 14:04:57;;;;;;;1999.90;999.90;;;10.80;99.90;;;;;;5014354;28;20182;-78
2021/11/07 14:07:25;;;;;;;1999.90;999.90;;;10.90;99.90;;;;;;4997913;28;20178;-77
2021/11/07 14:10:20;;;;;;;1999.90;999.90;;;10.90;99.90;;;;;;4997736;28;20199;-77
2021/11/07 14:12:50;;;;;;;1999.90;999.90;;;10.80;99.90;;;;;;4999069;28;20654;-78
2021/11/07 14:15:24;;;;;;;1999.90;999.90;;;10.90;99.90;;;;;;4998571;28;20260;-78
2021/11/07 14:17:51;;;;;;;1999.90;999.90;;;11.00;99.90;;;;;;4998452;28;20656;-79
2021/11/07 14:20:43;;;;;;;1999.90;999.90;;;11.00;99.90;;;;;;4999957;28;20199;-80
2021/11/07 14:23:42;;;;;;;1999.90;999.90;;;11.00;99.90;;;;;;5016588;28;20707;-78
2021/11/07 14:31:42;;;;;;;1999.90;999.90;;;11.00;99.90;;;;;;4994925;28;20202;-79
2021/11/07 14:34:15;;;;;;;1999.90;999.90;;;10.90;99.90;;;;;;4995480;28;20205;-81
2021/11/07 14:36:48;;;;;;;1999.90;999.90;;;10.90;99.90;;;;;;4996241;28;20674;-81
2021/11/07 14:42:38;;;;;;;1999.90;999.90;;;10.90;99.90;;;;;;4996407;28;20566;-80
2021/11/07 14:54:01;;;;;;;1999.90;999.90;;;10.80;99.90;;;;;;4995539;28;20288;-81
2021/11/07 14:56:32;;;;;;;1999.90;999.90;;;10.90;99.90;;;;;;4995521;28;20184;-81
2021/11/07 14:59:08;;;;;;;1999.90;999.90;;;10.90;99.90;;;;;;4994697;28;20180;-81
2021/11/07 15:04:13;;;;;;;1999.90;999.90;;;10.90;99.90;;;;;;4996369;28;20168;-81
2021/11/07 15:07:11;;;;;;;1999.90;999.90;;;10.80;99.90;;;;;;4996752;28;20682;-81
2021/11/07 15:10:43;;;;;;;1999.90;999.90;;;10.70;99.90;;;;;;4995419;28;20178;-81